sensor_id;sensor_type;location;lat;lon;timestamp;P1;durP1;ratioP1;P2;durP2;ratioP2
66163;SDS011;52962;51.088;3.096;2023-03-03T00:00:27;3.25;;;2.85;;
66163;SDS011;52962;51.088;3.096;2023-03-03T00:02:56;4.25;;;2.88;;
66163;SDS011;52962;51.088;3.096;2023-03-03T00:05:30;0.77;;;0.77;;
66163;SDS011;52962;51.088;3.096;2023-03-03T00:08:00;3.85;;;3.17;;
66163;SDS011;52962;51.088;3.096;2023-03-03T00:10:29;3.75;;;3.25;;
66163;SDS011;52962;51.088;3.096;2023-03-03T00:12:57;2.90;;;2.70;;
66163;SDS011;52962;51.088;3.096;2023-03-03T00:15:27;3.63;;;2.95;;
66163;SDS011;52962;51.088;3.096;2023-03-03T00:17:56;4.72;;;3.30;;
66163;SDS011;52962;51.088;3.096;2023-03-03T00:20:28;2.42;;;1.52;;
66163;SDS011;52962;51.088;3.096;2023-03-03T00:25:57;2.90;;;2.55;;
66163;SDS011;52962;51.088;3.096;2023-03-03T00:28:27;2.70;;;2.17;;
66163;SDS011;52962;51.088;3.096;2023-03-03T00:30:57;3.13;;;1.63;;
66163;SDS011;52962;51.088;3.096;2023-03-03T00:33:28;3.00;;;2.40;;
66163;SDS011;52962;51.088;3.096;2023-03-03T00:36:09;3.40;;;2.22;;
66163;SDS011;52962;51.088;3.096;2023-03-03T00:38:56;3.75;;;2.92;;
66163;SDS011;52962;51.088;3.096;2023-03-03T00:41:38;3.35;;;3.13;;
66163;SDS011;52962;51.088;3.096;2023-03-03T00:44:22;4.95;;;2.30;;
66163;SDS011;52962;51.088;3.096;2023-03-03T00:47:02;3.67;;;2.95;;
66163;SDS011;52962;51.088;3.096;2023-03-03T00:50:12;2.47;;;1.88;;
66163;SDS011;52962;51.088;3.096;2023-03-03T00:52:53;3.08;;;2.33;;
66163;SDS011;52962;51.088;3.096;2023-03-03T00:55:29;1.98;;;1.67;;
66163;SDS011;52962;51.088;3.096;2023-03-03T00:57:58;4.72;;;3.05;;
66163;SDS011;52962;51.088;3.096;2023-03-03T01:00:31;2.35;;;2.13;;
66163;SDS011;52962;51.088;3.096;2023-03-03T01:03:01;3.35;;;2.65;;
66163;SDS011;52962;51.088;3.096;2023-03-03T01:05:31;5.05;;;4.10;;
66163;SDS011;52962;51.088;3.096;2023-03-03T01:10:30;1.65;;;1.38;;
66163;SDS011;52962;51.088;3.096;2023-03-03T01:13:01;3.75;;;3.38;;
66163;SDS011;52962;51.088;3.096;2023-03-03T01:17:57;3.22;;;2.65;;
66163;SDS011;52962;51.088;3.096;2023-03-03T01:20:25;2.60;;;2.35;;
66163;SDS011;52962;51.088;3.096;2023-03-03T01:27:51;2.60;;;2.40;;
66163;SDS011;52962;51.088;3.096;2023-03-03T01:30:19;4.60;;;3.17;;
66163;SDS011;52962;51.088;3.096;2023-03-03T01:32:47;2.80;;;2.30;;
66163;SDS011;52962;51.088;3.096;2023-03-03T01:35:15;2.22;;;2.03;;
66163;SDS011;52962;51.088;3.096;2023-03-03T01:40:13;3.47;;;2.38;;
66163;SDS011;52962;51.088;3.096;2023-03-03T01:42:43;3.50;;;1.85;;
66163;SDS011;52962;51.088;3.096;2023-03-03T01:45:15;2.13;;;2.00;;
66163;SDS011;52962;51.088;3.096;2023-03-03T01:47:46;1.70;;;1.40;;
66163;SDS011;52962;51.088;3.096;2023-03-03T01:50:20;2.67;;;2.47;;
66163;SDS011;52962;51.088;3.096;2023-03-03T01:52:55;3.15;;;2.20;;
66163;SDS011;52962;51.088;3.096;2023-03-03T01:55:28;5.57;;;3.45;;
66163;SDS011;52962;51.088;3.096;2023-03-03T01:58:01;2.97;;;2.78;;
66163;SDS011;52962;51.088;3.096;2023-03-03T02:00:35;2.83;;;1.60;;
66163;SDS011;52962;51.088;3.096;2023-03-03T02:03:05;2.45;;;2.22;;
66163;SDS011;52962;51.088;3.096;2023-03-03T02:05:33;2.00;;;1.77;;
66163;SDS011;52962;51.088;3.096;2023-03-03T02:10:33;2.58;;;2.38;;
66163;SDS011;52962;51.088;3.096;2023-03-03T02:18:04;2.63;;;0.80;;
66163;SDS011;52962;51.088;3.096;2023-03-03T02:20:40;1.73;;;1.63;;
66163;SDS011;52962;51.088;3.096;2023-03-03T02:23:20;2.95;;;1.55;;
66163;SDS011;52962;51.088;3.096;2023-03-03T02:26:08;1.48;;;1.38;;
66163;SDS011;52962;51.088;3.096;2023-03-03T02:28:38;1.70;;;1.40;;
66163;SDS011;52962;51.088;3.096;2023-03-03T02:31:10;2.03;;;1.63;;
66163;SDS011;52962;51.088;3.096;2023-03-03T02:33:43;1.98;;;1.85;;
66163;SDS011;52962;51.088;3.096;2023-03-03T02:36:13;3.75;;;2.88;;
66163;SDS011;52962;51.088;3.096;2023-03-03T02:38:43;2.08;;;1.88;;
66163;SDS011;52962;51.088;3.096;2023-03-03T02:41:20;2.17;;;1.83;;
66163;SDS011;52962;51.088;3.096;2023-03-03T02:43:58;3.90;;;2.63;;
66163;SDS011;52962;51.088;3.096;2023-03-03T02:46:31;2.05;;;1.92;;
66163;SDS011;52962;51.088;3.096;2023-03-03T02:49:01;1.23;;;1.13;;
66163;SDS011;52962;51.088;3.096;2023-03-03T02:51:31;1.88;;;1.23;;
66163;SDS011;52962;51.088;3.096;2023-03-03T02:53:59;1.80;;;1.70;;
66163;SDS011;52962;51.088;3.096;2023-03-03T02:56:31;1.42;;;1.33;;
66163;SDS011;52962;51.088;3.096;2023-03-03T02:58:59;2.00;;;1.73;;
66163;SDS011;52962;51.088;3.096;2023-03-03T03:01:31;2.28;;;1.92;;
66163;SDS011;52962;51.088;3.096;2023-03-03T03:04:05;1.45;;;1.08;;
66163;SDS011;52962;51.088;3.096;2023-03-03T03:06:38;3.60;;;2.53;;
66163;SDS011;52962;51.088;3.096;2023-03-03T03:09:07;1.75;;;1.65;;
66163;SDS011;52962;51.088;3.096;2023-03-03T03:11:38;3.20;;;2.40;;
66163;SDS011;52962;51.088;3.096;2023-03-03T03:14:07;2.25;;;1.75;;
66163;SDS011;52962;51.088;3.096;2023-03-03T03:16:38;4.55;;;1.33;;
66163;SDS011;52962;51.088;3.096;2023-03-03T03:19:06;1.52;;;1.00;;
66163;SDS011;52962;51.088;3.096;2023-03-03T03:21:37;2.10;;;1.60;;
66163;SDS011;52962;51.088;3.096;2023-03-03T03:24:06;1.10;;;1.10;;
66163;SDS011;52962;51.088;3.096;2023-03-03T03:26:38;3.03;;;0.95;;
66163;SDS011;52962;51.088;3.096;2023-03-03T03:29:07;2.72;;;1.58;;
66163;SDS011;52962;51.088;3.096;2023-03-03T03:31:37;1.80;;;1.42;;
66163;SDS011;52962;51.088;3.096;2023-03-03T03:34:06;2.22;;;1.50;;
66163;SDS011;52962;51.088;3.096;2023-03-03T03:36:34;4.35;;;1.73;;
66163;SDS011;52962;51.088;3.096;2023-03-03T03:39:03;1.65;;;1.58;;
66163;SDS011;52962;51.088;3.096;2023-03-03T03:41:34;2.47;;;1.30;;
66163;SDS011;52962;51.088;3.096;2023-03-03T03:44:04;4.63;;;1.02;;
66163;SDS011;52962;51.088;3.096;2023-03-03T03:46:32;2.25;;;1.90;;
66163;SDS011;52962;51.088;3.096;2023-03-03T03:49:00;1.58;;;1.48;;
66163;SDS011;52962;51.088;3.096;2023-03-03T03:51:29;1.73;;;1.05;;
66163;SDS011;52962;51.088;3.096;2023-03-03T03:53:58;0.98;;;0.98;;
66163;SDS011;52962;51.088;3.096;2023-03-03T03:56:26;0.98;;;0.82;;
66163;SDS011;52962;51.088;3.096;2023-03-03T03:58:56;2.65;;;2.03;;
66163;SDS011;52962;51.088;3.096;2023-03-03T04:01:27;3.67;;;1.30;;
66163;SDS011;52962;51.088;3.096;2023-03-03T04:03:56;4.30;;;1.73;;
66163;SDS011;52962;51.088;3.096;2023-03-03T04:06:24;2.22;;;1.83;;
66163;SDS011;52962;51.088;3.096;2023-03-03T04:08:53;2.30;;;1.23;;
66163;SDS011;52962;51.088;3.096;2023-03-03T04:11:24;2.03;;;1.83;;
66163;SDS011;52962;51.088;3.096;2023-03-03T04:13:52;1.55;;;0.85;;
66163;SDS011;52962;51.088;3.096;2023-03-03T04:16:20;1.45;;;1.35;;
66163;SDS011;52962;51.088;3.096;2023-03-03T04:18:50;1.00;;;1.00;;
66163;SDS011;52962;51.088;3.096;2023-03-03T04:21:20;1.90;;;1.05;;
66163;SDS011;52962;51.088;3.096;2023-03-03T04:23:50;2.55;;;1.63;;
66163;SDS011;52962;51.088;3.096;2023-03-03T04:26:19;0.80;;;0.70;;
66163;SDS011;52962;51.088;3.096;2023-03-03T04:28:47;1.77;;;1.55;;
66163;SDS011;52962;51.088;3.096;2023-03-03T04:31:17;1.88;;;1.77;;
66163;SDS011;52962;51.088;3.096;2023-03-03T04:33:46;1.00;;;0.88;;
66163;SDS011;52962;51.088;3.096;2023-03-03T04:38:44;0.10;;;0.10;;
66163;SDS011;52962;51.088;3.096;2023-03-03T04:41:13;0.55;;;0.47;;
66163;SDS011;52962;51.088;3.096;2023-03-03T04:46:11;0.60;;;0.60;;
66163;SDS011;52962;51.088;3.096;2023-03-03T04:48:40;1.48;;;1.38;;
66163;SDS011;52962;51.088;3.096;2023-03-03T04:51:09;0.65;;;0.65;;
66163;SDS011;52962;51.088;3.096;2023-03-03T04:53:39;1.55;;;1.13;;
66163;SDS011;52962;51.088;3.096;2023-03-03T04:56:08;2.35;;;1.35;;
66163;SDS011;52962;51.088;3.096;2023-03-03T04:58:36;0.73;;;0.55;;
66163;SDS011;52962;51.088;3.096;2023-03-03T05:01:05;1.50;;;1.27;;
66163;SDS011;52962;51.088;3.096;2023-03-03T05:03:33;1.00;;;0.75;;
66163;SDS011;52962;51.088;3.096;2023-03-03T05:06:01;1.83;;;1.30;;
66163;SDS011;52962;51.088;3.096;2023-03-03T05:08:29;0.73;;;0.73;;
66163;SDS011;52962;51.088;3.096;2023-03-03T05:10:58;1.33;;;1.27;;
66163;SDS011;52962;51.088;3.096;2023-03-03T05:13:27;0.75;;;0.75;;
66163;SDS011;52962;51.088;3.096;2023-03-03T05:15:55;0.93;;;0.93;;
66163;SDS011;52962;51.088;3.096;2023-03-03T05:20:52;0.15;;;0.15;;
66163;SDS011;52962;51.088;3.096;2023-03-03T05:23:20;0.63;;;0.63;;
66163;SDS011;52962;51.088;3.096;2023-03-03T05:25:50;1.35;;;0.80;;
66163;SDS011;52962;51.088;3.096;2023-03-03T05:30:48;0.28;;;0.28;;
66163;SDS011;52962;51.088;3.096;2023-03-03T05:33:16;0.88;;;0.80;;
66163;SDS011;52962;51.088;3.096;2023-03-03T05:35:44;3.13;;;0.70;;
66163;SDS011;52962;51.088;3.096;2023-03-03T05:38:12;0.13;;;0.13;;
66163;SDS011;52962;51.088;3.096;2023-03-03T05:40:40;0.40;;;0.40;;
66163;SDS011;52962;51.088;3.096;2023-03-03T05:43:09;0.38;;;0.38;;
66163;SDS011;52962;51.088;3.096;2023-03-03T05:45:38;0.28;;;0.28;;
66163;SDS011;52962;51.088;3.096;2023-03-03T05:48:07;0.43;;;0.43;;
66163;SDS011;52962;51.088;3.096;2023-03-03T05:50:35;0.68;;;0.47;;
66163;SDS011;52962;51.088;3.096;2023-03-03T05:53:04;0.73;;;0.40;;
66163;SDS011;52962;51.088;3.096;2023-03-03T05:55:33;0.90;;;0.90;;
66163;SDS011;52962;51.088;3.096;2023-03-03T05:58:01;0.28;;;0.28;;
66163;SDS011;52962;51.088;3.096;2023-03-03T06:00:29;0.60;;;0.60;;
66163;SDS011;52962;51.088;3.096;2023-03-03T06:02:58;0.95;;;0.40;;
66163;SDS011;52962;51.088;3.096;2023-03-03T06:05:26;0.60;;;0.60;;
66163;SDS011;52962;51.088;3.096;2023-03-03T06:07:55;0.75;;;0.75;;
66163;SDS011;52962;51.088;3.096;2023-03-03T06:10:22;2.13;;;0.47;;
66163;SDS011;52962;51.088;3.096;2023-03-03T06:12:54;0.60;;;0.50;;
66163;SDS011;52962;51.088;3.096;2023-03-03T06:15:23;0.47;;;0.35;;
66163;SDS011;52962;51.088;3.096;2023-03-03T06:17:52;0.45;;;0.43;;
66163;SDS011;52962;51.088;3.096;2023-03-03T06:20:21;0.22;;;0.22;;
66163;SDS011;52962;51.088;3.096;2023-03-03T06:22:49;0.32;;;0.32;;
66163;SDS011;52962;51.088;3.096;2023-03-03T06:25:17;0.80;;;0.80;;
66163;SDS011;52962;51.088;3.096;2023-03-03T06:27:45;0.75;;;0.60;;
66163;SDS011;52962;51.088;3.096;2023-03-03T06:30:14;0.28;;;0.28;;
66163;SDS011;52962;51.088;3.096;2023-03-03T06:32:42;0.08;;;0.08;;
66163;SDS011;52962;51.088;3.096;2023-03-03T06:35:10;0.32;;;0.32;;
66163;SDS011;52962;51.088;3.096;2023-03-03T06:37:40;0.40;;;0.40;;
66163;SDS011;52962;51.088;3.096;2023-03-03T06:40:08;0.20;;;0.20;;
66163;SDS011;52962;51.088;3.096;2023-03-03T06:42:37;0.30;;;0.30;;
66163;SDS011;52962;51.088;3.096;2023-03-03T06:45:06;1.80;;;0.38;;
66163;SDS011;52962;51.088;3.096;2023-03-03T06:47:34;0.93;;;0.93;;
66163;SDS011;52962;51.088;3.096;2023-03-03T06:50:02;0.32;;;0.32;;
66163;SDS011;52962;51.088;3.096;2023-03-03T06:52:31;5.88;;;1.05;;
66163;SDS011;52962;51.088;3.096;2023-03-03T06:55:01;0.25;;;0.25;;
66163;SDS011;52962;51.088;3.096;2023-03-03T06:57:38;0.38;;;0.38;;
66163;SDS011;52962;51.088;3.096;2023-03-03T07:00:13;0.17;;;0.17;;
66163;SDS011;52962;51.088;3.096;2023-03-03T07:02:45;2.92;;;0.50;;
66163;SDS011;52962;51.088;3.096;2023-03-03T07:05:14;0.65;;;0.65;;
66163;SDS011;52962;51.088;3.096;2023-03-03T07:07:44;0.20;;;0.20;;
66163;SDS011;52962;51.088;3.096;2023-03-03T07:10:17;0.32;;;0.32;;
66163;SDS011;52962;51.088;3.096;2023-03-03T07:12:49;0.95;;;0.70;;
66163;SDS011;52962;51.088;3.096;2023-03-03T07:15:19;0.55;;;0.55;;
66163;SDS011;52962;51.088;3.096;2023-03-03T07:17:51;0.30;;;0.30;;
66163;SDS011;52962;51.088;3.096;2023-03-03T07:20:24;0.38;;;0.38;;
66163;SDS011;52962;51.088;3.096;2023-03-03T07:22:56;0.70;;;0.43;;
66163;SDS011;52962;51.088;3.096;2023-03-03T07:25:28;0.57;;;0.40;;
66163;SDS011;52962;51.088;3.096;2023-03-03T07:27:59;0.50;;;0.50;;
66163;SDS011;52962;51.088;3.096;2023-03-03T07:30:37;1.65;;;0.60;;
66163;SDS011;52962;51.088;3.096;2023-03-03T07:33:07;0.85;;;0.52;;
66163;SDS011;52962;51.088;3.096;2023-03-03T07:35:46;0.63;;;0.63;;
66163;SDS011;52962;51.088;3.096;2023-03-03T07:38:28;0.63;;;0.47;;
66163;SDS011;52962;51.088;3.096;2023-03-03T07:41:00;0.93;;;0.55;;
66163;SDS011;52962;51.088;3.096;2023-03-03T07:43:33;0.40;;;0.35;;
66163;SDS011;52962;51.088;3.096;2023-03-03T07:48:57;2.58;;;0.40;;
66163;SDS011;52962;51.088;3.096;2023-03-03T07:51:27;1.00;;;0.45;;
66163;SDS011;52962;51.088;3.096;2023-03-03T07:54:09;0.03;;;0.03;;
66163;SDS011;52962;51.088;3.096;2023-03-03T07:56:45;0.35;;;0.30;;
66163;SDS011;52962;51.088;3.096;2023-03-03T07:59:17;0.43;;;0.43;;
66163;SDS011;52962;51.088;3.096;2023-03-03T08:01:50;1.58;;;0.95;;
66163;SDS011;52962;51.088;3.096;2023-03-03T08:04:22;0.88;;;0.88;;
66163;SDS011;52962;51.088;3.096;2023-03-03T08:06:52;1.60;;;0.73;;
66163;SDS011;52962;51.088;3.096;2023-03-03T08:09:35;1.05;;;0.82;;
66163;SDS011;52962;51.088;3.096;2023-03-03T08:15:18;1.10;;;0.90;;
66163;SDS011;52962;51.088;3.096;2023-03-03T08:17:49;1.80;;;1.70;;
66163;SDS011;52962;51.088;3.096;2023-03-03T08:23:12;2.33;;;1.88;;
66163;SDS011;52962;51.088;3.096;2023-03-03T08:25:41;1.42;;;1.33;;
66163;SDS011;52962;51.088;3.096;2023-03-03T08:28:12;1.35;;;1.25;;
66163;SDS011;52962;51.088;3.096;2023-03-03T08:30:41;1.70;;;1.58;;
66163;SDS011;52962;51.088;3.096;2023-03-03T08:33:10;1.35;;;1.10;;
66163;SDS011;52962;51.088;3.096;2023-03-03T08:35:38;1.88;;;1.77;;
66163;SDS011;52962;51.088;3.096;2023-03-03T08:38:07;1.77;;;1.67;;
66163;SDS011;52962;51.088;3.096;2023-03-03T08:40:36;2.90;;;1.73;;
66163;SDS011;52962;51.088;3.096;2023-03-03T08:43:04;1.63;;;1.52;;
66163;SDS011;52962;51.088;3.096;2023-03-03T08:45:34;0.63;;;0.52;;
66163;SDS011;52962;51.088;3.096;2023-03-03T08:48:02;2.10;;;1.35;;
66163;SDS011;52962;51.088;3.096;2023-03-03T08:50:31;0.95;;;0.75;;
66163;SDS011;52962;51.088;3.096;2023-03-03T08:52:59;1.20;;;1.17;;
66163;SDS011;52962;51.088;3.096;2023-03-03T08:55:27;2.08;;;1.50;;
66163;SDS011;52962;51.088;3.096;2023-03-03T08:57:56;1.38;;;1.33;;
66163;SDS011;52962;51.088;3.096;2023-03-03T09:00:24;2.65;;;2.45;;
66163;SDS011;52962;51.088;3.096;2023-03-03T09:02:54;1.73;;;1.63;;
66163;SDS011;52962;51.088;3.096;2023-03-03T09:05:23;2.72;;;1.95;;
66163;SDS011;52962;51.088;3.096;2023-03-03T09:07:52;2.65;;;1.77;;
66163;SDS011;52962;51.088;3.096;2023-03-03T09:10:22;3.17;;;2.42;;
66163;SDS011;52962;51.088;3.096;2023-03-03T09:12:53;2.95;;;1.92;;
66163;SDS011;52962;51.088;3.096;2023-03-03T09:15:24;1.63;;;1.33;;
66163;SDS011;52962;51.088;3.096;2023-03-03T09:17:57;1.73;;;1.55;;
66163;SDS011;52962;51.088;3.096;2023-03-03T09:20:30;2.28;;;2.08;;
66163;SDS011;52962;51.088;3.096;2023-03-03T09:23:16;3.40;;;2.67;;
66163;SDS011;52962;51.088;3.096;2023-03-03T09:25:55;2.15;;;1.77;;
66163;SDS011;52962;51.088;3.096;2023-03-03T09:28:25;3.70;;;2.70;;
66163;SDS011;52962;51.088;3.096;2023-03-03T09:30:55;2.17;;;1.98;;
66163;SDS011;52962;51.088;3.096;2023-03-03T09:33:27;0.55;;;0.55;;
66163;SDS011;52962;51.088;3.096;2023-03-03T09:36:03;4.03;;;2.42;;
66163;SDS011;52962;51.088;3.096;2023-03-03T09:38:39;2.15;;;2.05;;
66163;SDS011;52962;51.088;3.096;2023-03-03T09:44:17;1.92;;;1.77;;
66163;SDS011;52962;51.088;3.096;2023-03-03T09:47:12;2.55;;;2.33;;
66163;SDS011;52962;51.088;3.096;2023-03-03T09:49:58;2.03;;;1.92;;
66163;SDS011;52962;51.088;3.096;2023-03-03T09:52:36;1.85;;;1.55;;
66163;SDS011;52962;51.088;3.096;2023-03-03T09:55:16;3.25;;;3.05;;
66163;SDS011;52962;51.088;3.096;2023-03-03T09:57:57;5.28;;;2.53;;
66163;SDS011;52962;51.088;3.096;2023-03-03T10:00:42;1.48;;;1.38;;
66163;SDS011;52962;51.088;3.096;2023-03-03T10:06:16;2.40;;;1.67;;
66163;SDS011;52962;51.088;3.096;2023-03-03T10:08:52;4.03;;;2.45;;
66163;SDS011;52962;51.088;3.096;2023-03-03T10:11:31;2.45;;;2.33;;
66163;SDS011;52962;51.088;3.096;2023-03-03T10:14:16;3.50;;;2.13;;
66163;SDS011;52962;51.088;3.096;2023-03-03T10:17:10;3.25;;;2.22;;
66163;SDS011;52962;51.088;3.096;2023-03-03T10:19:51;2.05;;;1.52;;
66163;SDS011;52962;51.088;3.096;2023-03-03T10:22:33;1.98;;;1.85;;
66163;SDS011;52962;51.088;3.096;2023-03-03T10:25:15;1.65;;;1.35;;
66163;SDS011;52962;51.088;3.096;2023-03-03T10:27:54;1.80;;;1.70;;
66163;SDS011;52962;51.088;3.096;2023-03-03T10:30:36;1.33;;;1.33;;
66163;SDS011;52962;51.088;3.096;2023-03-03T10:33:30;2.22;;;1.88;;
66163;SDS011;52962;51.088;3.096;2023-03-03T10:36:13;2.42;;;1.95;;
66163;SDS011;52962;51.088;3.096;2023-03-03T10:38:56;1.48;;;1.08;;
66163;SDS011;52962;51.088;3.096;2023-03-03T10:41:40;0.45;;;0.45;;
66163;SDS011;52962;51.088;3.096;2023-03-03T10:44:28;1.40;;;1.17;;
66163;SDS011;52962;51.088;3.096;2023-03-03T10:47:09;2.92;;;1.92;;
66163;SDS011;52962;51.088;3.096;2023-03-03T10:49:52;3.38;;;2.40;;
66163;SDS011;52962;51.088;3.096;2023-03-03T10:52:32;1.60;;;1.50;;
66163;SDS011;52962;51.088;3.096;2023-03-03T10:55:16;2.35;;;2.15;;
66163;SDS011;52962;51.088;3.096;2023-03-03T10:57:53;1.58;;;1.30;;
66163;SDS011;52962;51.088;3.096;2023-03-03T11:00:39;2.60;;;1.00;;
66163;SDS011;52962;51.088;3.096;2023-03-03T11:03:22;1.50;;;1.17;;
66163;SDS011;52962;51.088;3.096;2023-03-03T11:06:08;1.33;;;1.23;;
66163;SDS011;52962;51.088;3.096;2023-03-03T11:08:43;0.68;;;0.68;;
66163;SDS011;52962;51.088;3.096;2023-03-03T11:11:19;1.73;;;1.63;;
66163;SDS011;52962;51.088;3.096;2023-03-03T11:13:56;1.55;;;1.20;;
66163;SDS011;52962;51.088;3.096;2023-03-03T11:16:36;1.50;;;0.98;;
66163;SDS011;52962;51.088;3.096;2023-03-03T11:19:20;2.05;;;1.33;;
66163;SDS011;52962;51.088;3.096;2023-03-03T11:22:01;3.05;;;1.20;;
66163;SDS011;52962;51.088;3.096;2023-03-03T11:24:41;0.93;;;0.93;;
66163;SDS011;52962;51.088;3.096;2023-03-03T11:27:24;0.93;;;0.90;;
66163;SDS011;52962;51.088;3.096;2023-03-03T11:30:10;1.35;;;1.25;;
66163;SDS011;52962;51.088;3.096;2023-03-03T11:32:51;1.88;;;1.70;;
66163;SDS011;52962;51.088;3.096;2023-03-03T11:35:26;4.70;;;1.75;;
66163;SDS011;52962;51.088;3.096;2023-03-03T11:38:02;0.98;;;0.98;;
66163;SDS011;52962;51.088;3.096;2023-03-03T11:40:46;1.10;;;1.02;;
66163;SDS011;52962;51.088;3.096;2023-03-03T11:43:19;3.20;;;0.93;;
66163;SDS011;52962;51.088;3.096;2023-03-03T11:46:03;2.08;;;1.63;;
66163;SDS011;52962;51.088;3.096;2023-03-03T11:48:37;1.10;;;1.00;;
66163;SDS011;52962;51.088;3.096;2023-03-03T11:51:11;1.15;;;1.10;;
66163;SDS011;52962;51.088;3.096;2023-03-03T11:53:46;1.35;;;1.25;;
66163;SDS011;52962;51.088;3.096;2023-03-03T11:56:34;2.55;;;1.30;;
66163;SDS011;52962;51.088;3.096;2023-03-03T11:59:12;0.52;;;0.52;;
66163;SDS011;52962;51.088;3.096;2023-03-03T12:01:53;1.50;;;1.40;;
66163;SDS011;52962;51.088;3.096;2023-03-03T12:04:25;1.13;;;1.02;;
66163;SDS011;52962;51.088;3.096;2023-03-03T12:07:03;2.13;;;1.35;;
66163;SDS011;52962;51.088;3.096;2023-03-03T12:09:46;1.42;;;1.17;;
66163;SDS011;52962;51.088;3.096;2023-03-03T12:12:23;0.77;;;0.77;;
66163;SDS011;52962;51.088;3.096;2023-03-03T12:14:58;0.88;;;0.88;;
66163;SDS011;52962;51.088;3.096;2023-03-03T12:17:45;1.00;;;0.88;;
66163;SDS011;52962;51.088;3.096;2023-03-03T12:20:24;1.75;;;1.15;;
66163;SDS011;52962;51.088;3.096;2023-03-03T12:23:02;1.35;;;1.00;;
66163;SDS011;52962;51.088;3.096;2023-03-03T12:25:38;1.50;;;1.40;;
66163;SDS011;52962;51.088;3.096;2023-03-03T12:28:12;2.38;;;0.95;;
66163;SDS011;52962;51.088;3.096;2023-03-03T12:33:51;2.03;;;0.77;;
66163;SDS011;52962;51.088;3.096;2023-03-03T12:36:35;1.65;;;1.00;;
66163;SDS011;52962;51.088;3.096;2023-03-03T12:39:19;1.42;;;1.33;;
66163;SDS011;52962;51.088;3.096;2023-03-03T12:42:02;0.80;;;0.80;;
66163;SDS011;52962;51.088;3.096;2023-03-03T12:44:39;0.47;;;0.47;;
66163;SDS011;52962;51.088;3.096;2023-03-03T12:47:14;0.63;;;0.63;;
66163;SDS011;52962;51.088;3.096;2023-03-03T12:49:54;2.08;;;0.98;;
66163;SDS011;52962;51.088;3.096;2023-03-03T12:52:36;1.85;;;1.70;;
66163;SDS011;52962;51.088;3.096;2023-03-03T12:55:15;1.05;;;0.82;;
66163;SDS011;52962;51.088;3.096;2023-03-03T12:57:54;1.08;;;1.02;;
66163;SDS011;52962;51.088;3.096;2023-03-03T13:00:29;1.00;;;0.80;;
66163;SDS011;52962;51.088;3.096;2023-03-03T13:03:12;1.30;;;0.75;;
66163;SDS011;52962;51.088;3.096;2023-03-03T13:05:58;0.85;;;0.85;;
66163;SDS011;52962;51.088;3.096;2023-03-03T13:08:36;0.75;;;0.75;;
66163;SDS011;52962;51.088;3.096;2023-03-03T13:11:19;0.82;;;0.80;;
66163;SDS011;52962;51.088;3.096;2023-03-03T13:13:58;1.00;;;0.90;;
66163;SDS011;52962;51.088;3.096;2023-03-03T13:16:36;2.38;;;1.05;;
66163;SDS011;52962;51.088;3.096;2023-03-03T13:19:10;3.03;;;0.98;;
66163;SDS011;52962;51.088;3.096;2023-03-03T13:21:44;0.57;;;0.57;;
66163;SDS011;52962;51.088;3.096;2023-03-03T13:24:18;0.80;;;0.80;;
66163;SDS011;52962;51.088;3.096;2023-03-03T13:26:53;0.73;;;0.50;;
66163;SDS011;52962;51.088;3.096;2023-03-03T13:29:25;1.27;;;1.17;;
66163;SDS011;52962;51.088;3.096;2023-03-03T13:31:58;1.40;;;0.90;;
66163;SDS011;52962;51.088;3.096;2023-03-03T13:34:33;0.77;;;0.77;;
66163;SDS011;52962;51.088;3.096;2023-03-03T13:37:11;1.08;;;0.57;;
66163;SDS011;52962;51.088;3.096;2023-03-03T13:39:51;2.33;;;1.15;;
66163;SDS011;52962;51.088;3.096;2023-03-03T13:42:25;1.55;;;1.20;;
66163;SDS011;52962;51.088;3.096;2023-03-03T13:44:59;2.08;;;0.95;;
66163;SDS011;52962;51.088;3.096;2023-03-03T13:47:36;1.23;;;0.82;;
66163;SDS011;52962;51.088;3.096;2023-03-03T13:50:15;1.20;;;1.00;;
66163;SDS011;52962;51.088;3.096;2023-03-03T13:52:57;0.88;;;0.88;;
66163;SDS011;52962;51.088;3.096;2023-03-03T13:55:41;0.73;;;0.63;;
66163;SDS011;52962;51.088;3.096;2023-03-03T13:58:14;3.00;;;1.30;;
66163;SDS011;52962;51.088;3.096;2023-03-03T14:00:54;1.77;;;1.00;;
66163;SDS011;52962;51.088;3.096;2023-03-03T14:06:39;2.35;;;1.42;;
66163;SDS011;52962;51.088;3.096;2023-03-03T14:09:19;1.20;;;0.93;;
66163;SDS011;52962;51.088;3.096;2023-03-03T14:12:03;1.40;;;1.30;;
66163;SDS011;52962;51.088;3.096;2023-03-03T14:14:42;1.60;;;1.50;;
66163;SDS011;52962;51.088;3.096;2023-03-03T14:17:19;2.10;;;1.60;;
66163;SDS011;52962;51.088;3.096;2023-03-03T14:19:58;1.83;;;1.48;;
66163;SDS011;52962;51.088;3.096;2023-03-03T14:22:36;1.67;;;1.58;;
66163;SDS011;52962;51.088;3.096;2023-03-03T14:25:12;1.80;;;1.70;;
66163;SDS011;52962;51.088;3.096;2023-03-03T14:27:53;1.48;;;1.38;;
66163;SDS011;52962;51.088;3.096;2023-03-03T14:30:29;2.47;;;1.60;;
66163;SDS011;52962;51.088;3.096;2023-03-03T14:33:01;3.47;;;1.85;;
66163;SDS011;52962;51.088;3.096;2023-03-03T14:35:43;1.92;;;1.23;;
66163;SDS011;52962;51.088;3.096;2023-03-03T14:38:18;1.83;;;1.73;;
66163;SDS011;52962;51.088;3.096;2023-03-03T14:41:02;3.38;;;2.13;;
66163;SDS011;52962;51.088;3.096;2023-03-03T14:43:40;2.30;;;1.50;;
66163;SDS011;52962;51.088;3.096;2023-03-03T14:49:00;2.72;;;1.83;;
66163;SDS011;52962;51.088;3.096;2023-03-03T14:51:32;2.22;;;1.60;;
66163;SDS011;52962;51.088;3.096;2023-03-03T14:54:10;0.77;;;0.77;;
66163;SDS011;52962;51.088;3.096;2023-03-03T14:56:54;1.15;;;0.95;;
66163;SDS011;52962;51.088;3.096;2023-03-03T14:59:24;3.25;;;1.40;;
66163;SDS011;52962;51.088;3.096;2023-03-03T15:01:59;2.20;;;1.23;;
66163;SDS011;52962;51.088;3.096;2023-03-03T15:04:44;1.35;;;1.02;;
66163;SDS011;52962;51.088;3.096;2023-03-03T15:07:22;1.40;;;1.30;;
66163;SDS011;52962;51.088;3.096;2023-03-03T15:10:00;2.03;;;1.25;;
66163;SDS011;52962;51.088;3.096;2023-03-03T15:12:33;0.70;;;0.65;;
66163;SDS011;52962;51.088;3.096;2023-03-03T15:15:06;0.95;;;0.75;;
66163;SDS011;52962;51.088;3.096;2023-03-03T15:17:52;1.50;;;1.15;;
66163;SDS011;52962;51.088;3.096;2023-03-03T15:20:28;1.40;;;0.98;;
66163;SDS011;52962;51.088;3.096;2023-03-03T15:23:13;0.90;;;0.75;;
66163;SDS011;52962;51.088;3.096;2023-03-03T15:25:53;1.60;;;0.80;;
66163;SDS011;52962;51.088;3.096;2023-03-03T15:28:32;0.65;;;0.65;;
66163;SDS011;52962;51.088;3.096;2023-03-03T15:31:12;0.60;;;0.60;;
66163;SDS011;52962;51.088;3.096;2023-03-03T15:33:51;0.70;;;0.70;;
66163;SDS011;52962;51.088;3.096;2023-03-03T15:39:02;0.65;;;0.65;;
66163;SDS011;52962;51.088;3.096;2023-03-03T15:41:45;0.85;;;0.80;;
66163;SDS011;52962;51.088;3.096;2023-03-03T15:44:25;0.52;;;0.52;;
66163;SDS011;52962;51.088;3.096;2023-03-03T15:47:02;0.63;;;0.63;;
66163;SDS011;52962;51.088;3.096;2023-03-03T15:50:02;0.57;;;0.55;;
66163;SDS011;52962;51.088;3.096;2023-03-03T15:52:42;1.13;;;0.47;;
66163;SDS011;52962;51.088;3.096;2023-03-03T15:55:25;1.58;;;1.08;;
66163;SDS011;52962;51.088;3.096;2023-03-03T15:58:07;0.38;;;0.38;;
66163;SDS011;52962;51.088;3.096;2023-03-03T16:00:55;4.63;;;1.13;;
66163;SDS011;52962;51.088;3.096;2023-03-03T16:03:37;1.80;;;0.47;;
66163;SDS011;52962;51.088;3.096;2023-03-03T16:06:14;0.43;;;0.40;;
66163;SDS011;52962;51.088;3.096;2023-03-03T16:11:24;1.33;;;0.50;;
66163;SDS011;52962;51.088;3.096;2023-03-03T16:14:08;0.25;;;0.25;;
66163;SDS011;52962;51.088;3.096;2023-03-03T16:16:47;0.40;;;0.40;;
66163;SDS011;52962;51.088;3.096;2023-03-03T16:22:01;1.23;;;0.63;;
66163;SDS011;52962;51.088;3.096;2023-03-03T16:25:13;0.57;;;0.28;;
66163;SDS011;52962;51.088;3.096;2023-03-03T16:27:53;0.40;;;0.40;;
66163;SDS011;52962;51.088;3.096;2023-03-03T16:30:30;0.38;;;0.38;;
66163;SDS011;52962;51.088;3.096;2023-03-03T16:33:09;0.13;;;0.13;;
66163;SDS011;52962;51.088;3.096;2023-03-03T16:35:43;0.32;;;0.30;;